Time;durP1;ratioP1;P1;durP2;ratioP2;P2;SDS_P1;SDS_P2;PMS_P1;PMS_P2;Temp;Humidity;BMP_temperature;BMP_pressure;BME280_temperature;BME280_humidity;BME280_pressure;Samples;Min_cycle;Max_cycle;Signal;HPM_P1;HPM_P2
2022/05/14 00:01:06;;;;;;;12.48;4.20;;;;;;;;;;5019501;28;20034;-70
2022/05/14 00:03:33;;;;;;;18.33;4.95;;;;;;;;;;5027624;28;20029;-70
2022/05/14 00:05:59;;;;;;;9.18;4.40;;;;;;;;;;5025602;28;20033;-70
2022/05/14 00:08:25;;;;;;;17.77;4.45;;;;;;;;;;5021617;28;20048;-71
2022/05/14 00:13:35;;;;;;;6.93;3.40;;;;;;;;;;5018208;28;20024;-71
2022/05/14 00:16:01;;;;;;;10.98;3.67;;;;;;;;;;5020240;28;20033;-71
2022/05/14 00:18:26;;;;;;;9.25;3.35;;;;;;;;;;5021137;28;20380;-71
2022/05/14 00:20:52;;;;;;;14.52;3.88;;;;;;;;;;5017013;28;20037;-71
2022/05/14 00:23:17;;;;;;;10.00;4.65;;;;;;;;;;5015763;28;20029;-72
2022/05/14 00:25:43;;;;;;;13.98;4.00;;;;;;;;;;5016480;28;20086;-71
2022/05/14 00:28:08;;;;;;;9.85;2.97;;;;;;;;;;5015861;28;20055;-71
2022/05/14 00:30:34;;;;;;;9.80;3.67;;;;;;;;;;5000834;28;20108;-71
2022/05/14 00:32:59;;;;;;;10.50;3.70;;;;;;;;;;5015846;28;20121;-72
2022/05/14 00:35:24;;;;;;;7.72;3.00;;;;;;;;;;5005694;28;20448;-71
2022/05/14 00:37:50;;;;;;;11.68;3.25;;;;;;;;;;5020155;28;20047;-71
2022/05/14 00:40:20;;;;;;;8.52;2.75;;;;;;;;;;5022943;28;20060;-71
2022/05/14 00:42:45;;;;;;;10.85;3.03;;;;;;;;;;5019773;28;20107;-71
2022/05/14 00:45:12;;;;;;;9.43;3.00;;;;;;;;;;5025524;28;20119;-71
2022/05/14 00:47:39;;;;;;;8.45;2.80;;;;;;;;;;5023254;28;20637;-71
2022/05/14 00:50:17;;;;;;;7.75;3.35;;;;;;;;;;5022582;28;20033;-71
2022/05/14 00:52:44;;;;;;;12.85;3.28;;;;;;;;;;5021360;28;20102;-71
2022/05/14 00:55:09;;;;;;;12.07;3.15;;;;;;;;;;5001212;28;20531;-71
2022/05/14 00:57:36;;;;;;;11.45;3.50;;;;;;;;;;5018292;28;20059;-71
2022/05/14 01:00:04;;;;;;;8.90;3.03;;;;;;;;;;5025434;28;20090;-72
2022/05/14 01:02:30;;;;;;;7.97;2.90;;;;;;;;;;5024311;28;20052;-71
2022/05/14 01:04:55;;;;;;;14.02;3.83;;;;;;;;;;5022848;28;20018;-72
2022/05/14 01:07:22;;;;;;;11.52;4.20;;;;;;;;;;5026341;28;20075;-71
2022/05/14 01:09:48;;;;;;;13.80;4.30;;;;;;;;;;5027404;28;20459;-71
2022/05/14 01:12:14;;;;;;;7.88;3.80;;;;;;;;;;5021702;28;20028;-71
2022/05/14 01:14:39;;;;;;;13.57;4.35;;;;;;;;;;5023556;28;20033;-71
2022/05/14 01:17:04;;;;;;;9.10;3.77;;;;;;;;;;5020635;28;20072;-71
2022/05/14 01:19:30;;;;;;;10.75;3.97;;;;;;;;;;5022715;28;20278;-71
2022/05/14 01:22:05;;;;;;;11.02;4.18;;;;;;;;;;5019604;28;20115;-71
2022/05/14 01:27:14;;;;;;;14.68;3.97;;;;;;;;;;5020196;28;20035;-71
2022/05/14 01:29:40;;;;;;;12.23;3.97;;;;;;;;;;5023376;28;20030;-71
2022/05/14 01:32:06;;;;;;;12.27;4.00;;;;;;;;;;5021936;28;20409;-71
2022/05/14 01:34:32;;;;;;;14.38;4.45;;;;;;;;;;5001026;28;20053;-71
2022/05/14 01:36:57;;;;;;;10.70;3.60;;;;;;;;;;5016000;28;20026;-71
2022/05/14 01:39:23;;;;;;;14.65;4.03;;;;;;;;;;5022939;28;20026;-71
2022/05/14 01:41:48;;;;;;;16.88;4.10;;;;;;;;;;5006402;28;20308;-70
2022/05/14 01:44:14;;;;;;;12.10;4.45;;;;;;;;;;5021671;28;20132;-71
2022/05/14 01:46:39;;;;;;;17.27;4.35;;;;;;;;;;5021219;28;20030;-72
2022/05/14 01:49:04;;;;;;;13.80;4.93;;;;;;;;;;5020014;28;20064;-71
2022/05/14 01:51:30;;;;;;;11.25;3.95;;;;;;;;;;5021214;28;20112;-71
2022/05/14 01:53:55;;;;;;;7.55;3.22;;;;;;;;;;5018756;28;20025;-70
2022/05/14 01:56:20;;;;;;;12.00;4.10;;;;;;;;;;5019581;28;20168;-71
2022/05/14 01:58:45;;;;;;;6.97;3.60;;;;;;;;;;5022435;28;20271;-71
2022/05/14 02:01:15;;;;;;;18.57;4.10;;;;;;;;;;5022595;28;20052;-70
2022/05/14 02:03:42;;;;;;;9.70;3.38;;;;;;;;;;5017002;28;20279;-71
2022/05/14 02:06:07;;;;;;;10.20;3.65;;;;;;;;;;5022169;28;20025;-71
2022/05/14 02:08:32;;;;;;;8.52;3.30;;;;;;;;;;5018829;28;20029;-71
2022/05/14 02:10:57;;;;;;;9.90;4.78;;;;;;;;;;5021666;28;20029;-71
2022/05/14 02:13:24;;;;;;;5.85;3.30;;;;;;;;;;5021022;28;20025;-71
2022/05/14 02:15:49;;;;;;;11.57;3.92;;;;;;;;;;5020018;28;20117;-71
2022/05/14 02:18:14;;;;;;;6.60;3.55;;;;;;;;;;5018763;28;20131;-71
2022/05/14 02:20:39;;;;;;;9.63;3.47;;;;;;;;;;5021661;28;20075;-71
2022/05/14 02:23:06;;;;;;;8.30;3.45;;;;;;;;;;5021860;28;20069;-71
2022/05/14 02:25:31;;;;;;;9.10;3.65;;;;;;;;;;5020660;28;20480;-71
2022/05/14 02:27:56;;;;;;;10.60;3.90;;;;;;;;;;5020870;28;20032;-71
2022/05/14 02:30:21;;;;;;;16.85;3.65;;;;;;;;;;5021209;28;20025;-71
2022/05/14 02:32:47;;;;;;;12.27;4.10;;;;;;;;;;5018181;28;20061;-71
2022/05/14 02:35:12;;;;;;;8.60;3.20;;;;;;;;;;5019805;28;20328;-71
2022/05/14 02:37:37;;;;;;;9.38;4.00;;;;;;;;;;5018772;28;20305;-71
2022/05/14 02:40:02;;;;;;;9.67;3.60;;;;;;;;;;5018188;28;20329;-71
2022/05/14 02:42:27;;;;;;;10.57;3.88;;;;;;;;;;5017699;28;20286;-71
2022/05/14 02:44:53;;;;;;;9.07;3.43;;;;;;;;;;5020919;28;20025;-71
2022/05/14 02:47:18;;;;;;;11.18;3.75;;;;;;;;;;5022902;28;20283;-71
2022/05/14 02:49:43;;;;;;;14.98;3.63;;;;;;;;;;5019645;28;20029;-71
2022/05/14 02:52:10;;;;;;;8.05;3.78;;;;;;;;;;5020713;28;20091;-71
2022/05/14 02:54:35;;;;;;;18.27;4.75;;;;;;;;;;5020923;28;20533;-71
2022/05/14 02:57:01;;;;;;;8.63;4.10;;;;;;;;;;5021889;28;20076;-71
2022/05/14 02:59:26;;;;;;;6.63;3.80;;;;;;;;;;5023774;28;20275;-71
2022/05/14 03:01:52;;;;;;;13.65;3.33;;;;;;;;;;5019728;28;20589;-71
2022/05/14 03:04:22;;;;;;;10.77;4.32;;;;;;;;;;5004800;28;20380;-71
2022/05/14 03:06:48;;;;;;;12.45;4.10;;;;;;;;;;5019489;28;20018;-70
2022/05/14 03:09:13;;;;;;;24.08;4.20;;;;;;;;;;5021228;28;20045;-71
2022/05/14 03:11:39;;;;;;;8.13;4.03;;;;;;;;;;5021326;28;20018;-71
2022/05/14 03:14:04;;;;;;;15.50;4.82;;;;;;;;;;5019271;28;20282;-71
2022/05/14 03:16:30;;;;;;;11.70;4.30;;;;;;;;;;5018534;28;20033;-71
2022/05/14 03:18:55;;;;;;;10.80;4.00;;;;;;;;;;5017283;28;20313;-70
2022/05/14 03:21:20;;;;;;;10.03;4.37;;;;;;;;;;4998889;28;20029;-70
2022/05/14 03:23:45;;;;;;;12.50;5.00;;;;;;;;;;5018944;28;20370;-70
2022/05/14 03:26:10;;;;;;;9.45;4.53;;;;;;;;;;5024008;28;20607;-70
2022/05/14 03:28:36;;;;;;;10.73;4.97;;;;;;;;;;5024339;28;20589;-71
2022/05/14 03:31:01;;;;;;;13.95;5.18;;;;;;;;;;5018874;28;20036;-70
2022/05/14 03:33:26;;;;;;;14.30;5.00;;;;;;;;;;5022225;28;20131;-70
2022/05/14 03:35:51;;;;;;;13.68;4.85;;;;;;;;;;5002200;28;20868;-70
2022/05/14 03:38:17;;;;;;;17.90;5.03;;;;;;;;;;5024701;28;20255;-70
2022/05/14 03:40:42;;;;;;;14.20;5.10;;;;;;;;;;5022115;28;20831;-70
2022/05/14 03:43:07;;;;;;;14.77;5.60;;;;;;;;;;5027478;28;20274;-71
2022/05/14 03:45:32;;;;;;;16.35;5.25;;;;;;;;;;5021778;28;20029;-71
2022/05/14 03:47:57;;;;;;;15.33;6.30;;;;;;;;;;5020449;28;20084;-70
2022/05/14 03:50:23;;;;;;;10.77;5.40;;;;;;;;;;5017105;28;20300;-70
2022/05/14 03:52:48;;;;;;;7.15;4.70;;;;;;;;;;5019922;28;20033;-71
2022/05/14 03:55:13;;;;;;;10.35;5.50;;;;;;;;;;5019821;28;20028;-70
2022/05/14 03:57:38;;;;;;;15.80;5.73;;;;;;;;;;5018392;28;20475;-70
2022/05/14 04:00:07;;;;;;;13.93;6.17;;;;;;;;;;5019515;28;20271;-71
2022/05/14 04:02:32;;;;;;;16.50;6.50;;;;;;;;;;5019753;28;20296;-72
2022/05/14 04:04:57;;;;;;;15.00;5.90;;;;;;;;;;5019198;28;20030;-70
2022/05/14 04:07:22;;;;;;;18.27;5.95;;;;;;;;;;5016415;28;20551;-70
2022/05/14 04:09:47;;;;;;;15.45;5.60;;;;;;;;;;5024025;28;20472;-70
2022/05/14 04:12:12;;;;;;;14.55;6.68;;;;;;;;;;5017643;28;20040;-71
2022/05/14 04:14:38;;;;;;;15.02;6.07;;;;;;;;;;5020986;28;20030;-70
2022/05/14 04:17:03;;;;;;;12.50;5.93;;;;;;;;;;5018093;28;20409;-70
2022/05/14 04:19:28;;;;;;;18.42;6.90;;;;;;;;;;5022707;28;20036;-70
2022/05/14 04:21:53;;;;;;;21.42;6.80;;;;;;;;;;5023664;28;20029;-71
2022/05/14 04:24:19;;;;;;;17.73;6.03;;;;;;;;;;5024248;28;20467;-70
2022/05/14 04:26:44;;;;;;;14.93;7.17;;;;;;;;;;5023673;28;20327;-70
2022/05/14 04:29:09;;;;;;;24.95;7.50;;;;;;;;;;5026949;28;20760;-71
2022/05/14 04:31:35;;;;;;;13.68;6.65;;;;;;;;;;5021420;28;20476;-71
2022/05/14 04:34:00;;;;;;;25.63;7.07;;;;;;;;;;5000522;28;20037;-71
2022/05/14 04:36:26;;;;;;;22.30;6.75;;;;;;;;;;5020852;28;20498;-70
2022/05/14 04:38:51;;;;;;;20.75;6.20;;;;;;;;;;5022528;28;20172;-70
2022/05/14 04:41:16;;;;;;;23.65;7.13;;;;;;;;;;5020797;28;20025;-70
2022/05/14 04:43:41;;;;;;;15.50;6.47;;;;;;;;;;5023499;28;20044;-71
2022/05/14 04:46:07;;;;;;;18.55;7.50;;;;;;;;;;5023668;28;20440;-70
2022/05/14 04:48:34;;;;;;;22.80;7.47;;;;;;;;;;5025187;28;20490;-70
2022/05/14 04:50:59;;;;;;;19.85;8.40;;;;;;;;;;5026344;28;20033;-70
2022/05/14 04:53:24;;;;;;;16.55;6.25;;;;;;;;;;5022895;28;20032;-70
2022/05/14 04:55:49;;;;;;;18.38;7.97;;;;;;;;;;5024333;28;20104;-71
2022/05/14 04:58:15;;;;;;;16.70;7.70;;;;;;;;;;5025993;28;20021;-70
2022/05/14 05:00:41;;;;;;;16.57;8.20;;;;;;;;;;5005524;28;20050;-71
2022/05/14 05:03:19;;;;;;;17.13;7.30;;;;;;;;;;5022151;28;20275;-71
2022/05/14 05:05:48;;;;;;;19.17;7.57;;;;;;;;;;5020418;28;20075;-70
2022/05/14 05:08:13;;;;;;;21.40;7.55;;;;;;;;;;5023021;28;20117;-70
2022/05/14 05:10:39;;;;;;;18.08;7.10;;;;;;;;;;5022284;28;20021;-71
2022/05/14 05:13:07;;;;;;;23.52;7.88;;;;;;;;;;5018658;28;20076;-72
2022/05/14 05:15:33;;;;;;;18.60;7.65;;;;;;;;;;5022673;28;20589;-70
2022/05/14 05:17:58;;;;;;;17.85;9.20;;;;;;;;;;5022881;28;20163;-70
2022/05/14 05:20:23;;;;;;;13.60;7.13;;;;;;;;;;5020395;28;20087;-70
2022/05/14 05:22:49;;;;;;;28.65;9.45;;;;;;;;;;5024049;28;20125;-72
2022/05/14 05:25:15;;;;;;;17.75;8.05;;;;;;;;;;5016111;28;20028;-69
2022/05/14 05:27:40;;;;;;;18.23;8.63;;;;;;;;;;5011198;28;20418;-70
2022/05/14 05:30:06;;;;;;;20.13;8.77;;;;;;;;;;5027304;28;20486;-71
2022/05/14 05:32:31;;;;;;;27.73;9.88;;;;;;;;;;5023823;28;20025;-71
2022/05/14 05:34:57;;;;;;;27.90;9.10;;;;;;;;;;5002007;28;20028;-69
2022/05/14 05:37:22;;;;;;;23.07;9.90;;;;;;;;;;5012193;28;20323;-72
2022/05/14 05:39:47;;;;;;;20.58;8.30;;;;;;;;;;5021216;28;20274;-68
2022/05/14 05:42:12;;;;;;;24.02;9.30;;;;;;;;;;5022103;28;20241;-71
2022/05/14 05:44:37;;;;;;;20.98;8.52;;;;;;;;;;5004396;28;20480;-70
2022/05/14 05:47:04;;;;;;;25.87;10.07;;;;;;;;;;5017906;28;20491;-69
2022/05/14 05:49:29;;;;;;;26.02;10.15;;;;;;;;;;5022163;28;20349;-69
2022/05/14 05:51:54;;;;;;;20.40;9.43;;;;;;;;;;5021893;28;20035;-70
2022/05/14 05:57:03;;;;;;;21.40;9.18;;;;;;;;;;5017757;28;20455;-71
2022/05/14 05:59:31;;;;;;;23.85;8.82;;;;;;;;;;5023122;28;20491;-71
2022/05/14 06:01:56;;;;;;;34.95;10.57;;;;;;;;;;5022531;28;20434;-70
2022/05/14 06:04:21;;;;;;;23.83;9.45;;;;;;;;;;5020541;28;20024;-71
2022/05/14 06:06:47;;;;;;;23.60;9.88;;;;;;;;;;5019307;28;20021;-71
2022/05/14 06:09:14;;;;;;;19.65;9.25;;;;;;;;;;5020319;28;20026;-71
2022/05/14 06:11:39;;;;;;;26.27;10.02;;;;;;;;;;5020038;28;20034;-72
2022/05/14 06:14:04;;;;;;;29.92;11.60;;;;;;;;;;5008615;28;20022;-72
2022/05/14 06:16:30;;;;;;;34.17;10.50;;;;;;;;;;5016022;28;20014;-71
2022/05/14 06:18:55;;;;;;;28.20;9.63;;;;;;;;;;5018209;28;20751;-72
2022/05/14 06:21:20;;;;;;;26.42;9.75;;;;;;;;;;5020781;28;20027;-72
2022/05/14 06:23:45;;;;;;;38.03;10.43;;;;;;;;;;5023494;28;20397;-72
2022/05/14 06:26:10;;;;;;;30.10;10.53;;;;;;;;;;5026047;28;20310;-71
2022/05/14 06:28:36;;;;;;;23.52;12.07;;;;;;;;;;5025500;28;20274;-72
2022/05/14 06:31:01;;;;;;;27.67;11.83;;;;;;;;;;5020106;28;20037;-71
2022/05/14 06:33:27;;;;;;;24.20;10.00;;;;;;;;;;5004489;28;20267;-71
2022/05/14 06:35:52;;;;;;;24.92;10.57;;;;;;;;;;5026417;28;20025;-72
2022/05/14 06:38:18;;;;;;;24.70;10.27;;;;;;;;;;5022055;28;20342;-72
2022/05/14 06:40:43;;;;;;;31.20;10.32;;;;;;;;;;5019983;28;20033;-71
2022/05/14 06:43:08;;;;;;;24.85;10.90;;;;;;;;;;5018453;28;20037;-71
2022/05/14 06:45:33;;;;;;;32.53;12.30;;;;;;;;;;5020102;28;20024;-71
2022/05/14 06:47:59;;;;;;;34.30;11.27;;;;;;;;;;5021073;28;20029;-71
2022/05/14 06:50:28;;;;;;;21.08;10.25;;;;;;;;;;5021716;28;20380;-72
2022/05/14 06:52:55;;;;;;;29.67;11.32;;;;;;;;;;5021241;28;20072;-70
2022/05/14 06:55:23;;;;;;;26.20;11.50;;;;;;;;;;5003860;28;20057;-71
2022/05/14 06:57:48;;;;;;;27.90;10.75;;;;;;;;;;5022322;28;20337;-71
2022/05/14 07:00:14;;;;;;;24.75;11.02;;;;;;;;;;5024464;28;20057;-73
2022/05/14 07:02:39;;;;;;;35.05;11.98;;;;;;;;;;5022495;28;20029;-71
2022/05/14 07:07:49;;;;;;;;;;;;;;;;;;5021501;28;20102;-74
2022/05/14 07:10:14;;;;;;;27.45;10.27;;;;;;;;;;5016206;28;19917;-71
2022/05/14 07:12:39;;;;;;;31.48;11.55;;;;;;;;;;5017524;28;20032;-72
2022/05/14 07:15:05;;;;;;;25.73;10.63;;;;;;;;;;5016578;28;20116;-70
2022/05/14 07:17:31;;;;;;;25.50;9.57;;;;;;;;;;5021346;28;20498;-72
2022/05/14 07:19:56;;;;;;;26.50;9.55;;;;;;;;;;5018184;28;20044;-71
2022/05/14 07:22:21;;;;;;;27.70;10.02;;;;;;;;;;5023866;28;20495;-71
2022/05/14 07:24:47;;;;;;;28.10;9.77;;;;;;;;;;5021019;28;20107;-71
2022/05/14 07:27:13;;;;;;;27.88;10.68;;;;;;;;;;5020593;28;20044;-72
2022/05/14 07:29:42;;;;;;;26.45;10.88;;;;;;;;;;5019086;28;20164;-72
2022/05/14 07:32:08;;;;;;;27.55;11.48;;;;;;;;;;5018148;28;20025;-72
2022/05/14 07:34:34;;;;;;;35.10;10.38;;;;;;;;;;5021133;28;20136;-73
2022/05/14 07:37:05;;;;;;;30.00;11.57;;;;;;;;;;5030012;28;20029;-71
2022/05/14 07:39:32;;;;;;;25.70;10.52;;;;;;;;;;5017618;28;20260;-71
2022/05/14 07:41:59;;;;;;;31.65;10.65;;;;;;;;;;5018985;28;20117;-69
2022/05/14 07:44:27;;;;;;;22.00;10.27;;;;;;;;;;5018540;28;20056;-70
2022/05/14 07:46:52;;;;;;;31.13;10.50;;;;;;;;;;5014127;28;20028;-69
2022/05/14 07:49:18;;;;;;;30.40;11.80;;;;;;;;;;5021619;28;20030;-71
2022/05/14 07:51:43;;;;;;;25.98;11.10;;;;;;;;;;5019652;28;20921;-72
2022/05/14 07:54:09;;;;;;;24.83;9.67;;;;;;;;;;5019950;28;20032;-72
2022/05/14 07:56:34;;;;;;;26.02;10.80;;;;;;;;;;5019956;28;20274;-72
2022/05/14 07:59:00;;;;;;;23.90;10.07;;;;;;;;;;5021698;28;20030;-72
2022/05/14 08:01:25;;;;;;;28.03;11.40;;;;;;;;;;5021150;28;20297;-71
2022/05/14 08:03:51;;;;;;;34.47;12.27;;;;;;;;;;5022133;28;20405;-71
2022/05/14 08:06:17;;;;;;;26.85;11.25;;;;;;;;;;5018048;28;20087;-70
2022/05/14 08:08:42;;;;;;;33.90;12.00;;;;;;;;;;5015862;28;20112;-71
2022/05/14 08:11:08;;;;;;;33.67;11.77;;;;;;;;;;5020764;28;20021;-68
2022/05/14 08:13:34;;;;;;;44.47;12.80;;;;;;;;;;5017613;28;20467;-72
2022/05/14 08:15:59;;;;;;;28.95;10.27;;;;;;;;;;5015186;28;20168;-72
2022/05/14 08:18:25;;;;;;;30.35;12.13;;;;;;;;;;5019732;28;20044;-72
2022/05/14 08:20:51;;;;;;;39.27;10.93;;;;;;;;;;5021594;28;20040;-73
2022/05/14 08:26:00;;;;;;;27.23;11.23;;;;;;;;;;5019067;28;20111;-70
2022/05/14 08:28:26;;;;;;;38.08;12.98;;;;;;;;;;5019168;28;20061;-70
2022/05/14 08:30:51;;;;;;;28.42;10.45;;;;;;;;;;5000122;28;20541;-71
2022/05/14 08:33:16;;;;;;;34.20;11.02;;;;;;;;;;5016036;28;20028;-71
2022/05/14 08:35:42;;;;;;;29.87;10.53;;;;;;;;;;5021443;28;20554;-69
2022/05/14 08:38:09;;;;;;;30.67;10.65;;;;;;;;;;5013683;28;20298;-69
2022/05/14 08:40:52;;;;;;;28.63;8.95;;;;;;;;;;5021073;28;20112;-70
2022/05/14 08:43:19;;;;;;;37.35;10.93;;;;;;;;;;5014128;28;20037;-69
2022/05/14 08:45:44;;;;;;;34.88;13.10;;;;;;;;;;5020031;28;20044;-72
2022/05/14 08:48:14;;;;;;;26.08;10.43;;;;;;;;;;5011963;28;20030;-66
2022/05/14 08:50:40;;;;;;;22.25;9.68;;;;;;;;;;5016686;28;20200;-71
2022/05/14 08:53:11;;;;;;;26.48;11.05;;;;;;;;;;5017462;28;20681;-71
2022/05/14 08:55:39;;;;;;;35.83;11.88;;;;;;;;;;5024338;28;20075;-72
2022/05/14 08:58:19;;;;;;;26.73;10.40;;;;;;;;;;5019279;28;20451;-71
2022/05/14 09:00:44;;;;;;;30.45;10.43;;;;;;;;;;5024120;28;20120;-72
2022/05/14 09:03:09;;;;;;;25.67;11.10;;;;;;;;;;5023222;28;20659;-69
2022/05/14 09:05:35;;;;;;;31.57;11.70;;;;;;;;;;5022172;28;20037;-71
2022/05/14 09:08:01;;;;;;;28.75;12.00;;;;;;;;;;5019923;28;20040;-69
2022/05/14 09:10:26;;;;;;;24.85;9.85;;;;;;;;;;5026425;28;20034;-70
2022/05/14 09:12:57;;;;;;;26.83;9.65;;;;;;;;;;5022620;28;20022;-71
2022/05/14 09:15:24;;;;;;;22.42;9.45;;;;;;;;;;5024602;28;20026;-69
2022/05/14 09:18:01;;;;;;;26.92;10.95;;;;;;;;;;5022983;28;20140;-69
2022/05/14 09:20:26;;;;;;;29.13;10.65;;;;;;;;;;5023997;28;20252;-69
2022/05/14 09:22:55;;;;;;;21.57;9.47;;;;;;;;;;5022965;28;20296;-70
2022/05/14 09:25:24;;;;;;;25.08;9.30;;;;;;;;;;5022956;28;20274;-69
2022/05/14 09:27:52;;;;;;;23.55;9.35;;;;;;;;;;5023515;28;20474;-69
2022/05/14 09:30:26;;;;;;;26.35;9.73;;;;;;;;;;5026446;28;20022;-69
2022/05/14 09:32:51;;;;;;;28.33;8.38;;;;;;;;;;5025225;28;20538;-70
2022/05/14 09:35:19;;;;;;;21.63;8.10;;;;;;;;;;5025871;28;20033;-71
2022/05/14 09:37:44;;;;;;;36.90;11.25;;;;;;;;;;5027003;28;20041;-70
2022/05/14 09:40:19;;;;;;;22.93;10.47;;;;;;;;;;5025914;28;20080;-69
2022/05/14 09:42:46;;;;;;;26.15;10.48;;;;;;;;;;5025292;28;20033;-69
2022/05/14 09:45:21;;;;;;;20.60;9.07;;;;;;;;;;5022694;28;20025;-72
2022/05/14 09:47:46;;;;;;;30.92;9.13;;;;;;;;;;5026762;28;20021;-71
2022/05/14 09:50:16;;;;;;;23.43;8.90;;;;;;;;;;5033561;28;20727;-70
2022/05/14 09:52:41;;;;;;;29.80;9.82;;;;;;;;;;5024246;28;20071;-71
2022/05/14 09:55:10;;;;;;;20.52;9.50;;;;;;;;;;5023047;28;20025;-71
2022/05/14 09:57:53;;;;;;;30.00;10.98;;;;;;;;;;5023354;28;20040;-71
2022/05/14 10:00:21;;;;;;;23.55;8.88;;;;;;;;;;5019219;28;20451;-71
2022/05/14 10:02:56;;;;;;;24.88;8.75;;;;;;;;;;5027520;28;20049;-71
2022/05/14 10:05:34;;;;;;;28.30;9.23;;;;;;;;;;5014460;28;20021;-73
2022/05/14 10:08:04;;;;;;;22.35;8.75;;;;;;;;;;5023624;28;20057;-70
2022/05/14 10:10:44;;;;;;;30.15;8.63;;;;;;;;;;5013605;28;20041;-70
2022/05/14 10:13:13;;;;;;;22.55;8.68;;;;;;;;;;5022151;28;20387;-69
2022/05/14 10:15:57;;;;;;;25.83;9.52;;;;;;;;;;5019166;28;20025;-72
2022/05/14 10:18:33;;;;;;;25.00;7.55;;;;;;;;;;5015492;28;20030;-71
2022/05/14 10:21:07;;;;;;;26.48;10.10;;;;;;;;;;5020267;28;20025;-73
2022/05/14 10:26:56;;;;;;;18.48;8.15;;;;;;;;;;5024630;28;20064;-71
2022/05/14 10:29:34;;;;;;;25.83;10.90;;;;;;;;;;5014232;28;20129;-70
2022/05/14 10:32:02;;;;;;;27.63;9.35;;;;;;;;;;5023618;28;20025;-70
2022/05/14 10:34:39;;;;;;;19.10;8.02;;;;;;;;;;5021772;28;20048;-71
2022/05/14 10:37:07;;;;;;;21.75;9.35;;;;;;;;;;5022783;28;20047;-71
2022/05/14 10:39:47;;;;;;;24.10;8.77;;;;;;;;;;5018712;28;20025;-70
2022/05/14 10:42:15;;;;;;;17.55;7.00;;;;;;;;;;5020424;28;20029;-71
2022/05/14 10:44:42;;;;;;;22.92;7.20;;;;;;;;;;5020829;28;20017;-70
2022/05/14 10:47:09;;;;;;;17.33;6.93;;;;;;;;;;5020952;28;20025;-71
2022/05/14 10:49:42;;;;;;;18.10;6.28;;;;;;;;;;5016960;28;20022;-70
2022/05/14 10:52:10;;;;;;;19.83;7.00;;;;;;;;;;5018877;28;20025;-70
2022/05/14 10:54:36;;;;;;;19.20;6.70;;;;;;;;;;5019799;28;20033;-70
2022/05/14 10:57:21;;;;;;;22.88;7.70;;;;;;;;;;5021946;28;20089;-70
2022/05/14 11:00:10;;;;;;;25.70;7.93;;;;;;;;;;5018516;28;20052;-72
2022/05/14 11:02:40;;;;;;;17.83;6.88;;;;;;;;;;5020525;28;20025;-72
2022/05/14 11:05:06;;;;;;;22.20;8.10;;;;;;;;;;5022003;28;20080;-74
2022/05/14 11:07:37;;;;;;;15.60;6.93;;;;;;;;;;5018112;28;20057;-74
2022/05/14 11:10:14;;;;;;;17.88;6.75;;;;;;;;;;5018476;28;20033;-72
2022/05/14 11:12:40;;;;;;;24.75;6.68;;;;;;;;;;5019997;28;20033;-76
2022/05/14 11:15:17;;;;;;;23.73;6.90;;;;;;;;;;5025909;28;20117;-71
2022/05/14 11:17:43;;;;;;;20.75;7.95;;;;;;;;;;5016139;28;20033;-72
2022/05/14 11:20:10;;;;;;;21.53;7.33;;;;;;;;;;5019150;28;20029;-78
2022/05/14 11:22:40;;;;;;;20.17;7.55;;;;;;;;;;5022452;28;20055;-74
2022/05/14 11:25:19;;;;;;;21.23;7.47;;;;;;;;;;5019856;28;20075;-74
2022/05/14 11:27:56;;;;;;;20.27;6.15;;;;;;;;;;5016298;28;20040;-75
2022/05/14 11:30:30;;;;;;;19.65;6.25;;;;;;;;;;5020571;28;20057;-75
2022/05/14 11:32:56;;;;;;;17.45;6.20;;;;;;;;;;5024350;28;20018;-74
2022/05/14 11:35:21;;;;;;;20.13;6.15;;;;;;;;;;5016636;28;20028;-73
2022/05/14 11:37:50;;;;;;;18.83;7.97;;;;;;;;;;5018741;28;20029;-75
2022/05/14 11:40:21;;;;;;;37.92;8.23;;;;;;;;;;5021235;28;20021;-75
2022/05/14 11:42:48;;;;;;;23.75;7.25;;;;;;;;;;5001853;28;20380;-76
2022/05/14 11:45:18;;;;;;;14.57;6.30;;;;;;;;;;5019373;28;20055;-75
2022/05/14 11:47:47;;;;;;;16.88;6.07;;;;;;;;;;5020563;28;20029;-72
2022/05/14 11:50:15;;;;;;;16.52;6.65;;;;;;;;;;5002580;28;20550;-75
2022/05/14 11:52:45;;;;;;;14.75;5.93;;;;;;;;;;5020770;28;20053;-76
2022/05/14 11:55:16;;;;;;;18.00;6.90;;;;;;;;;;5018713;28;20383;-73
2022/05/14 11:57:44;;;;;;;22.27;6.35;;;;;;;;;;5021992;28;20037;-77
2022/05/14 12:00:17;;;;;;;11.73;5.97;;;;;;;;;;5021229;28;20022;-73
2022/05/14 12:02:42;;;;;;;;;;;;;;;;;;5019319;28;20100;-73
2022/05/14 12:05:12;;;;;;;13.75;4.95;;;;;;;;;;5018183;28;19923;-68
2022/05/14 12:07:49;;;;;;;15.57;4.95;;;;;;;;;;5020683;28;20068;-71
2022/05/14 12:10:20;;;;;;;12.57;5.68;;;;;;;;;;5018478;28;20044;-72
2022/05/14 12:12:59;;;;;;;17.25;5.20;;;;;;;;;;5019829;28;20072;-72
2022/05/14 12:15:24;;;;;;;15.18;5.45;;;;;;;;;;5021037;28;20071;-72
2022/05/14 12:17:52;;;;;;;16.30;5.63;;;;;;;;;;5015046;28;20045;-75
2022/05/14 12:20:19;;;;;;;16.33;5.75;;;;;;;;;;5022138;28;20026;-77
2022/05/14 12:22:51;;;;;;;18.38;5.88;;;;;;;;;;5017390;28;20542;-73
2022/05/14 12:25:16;;;;;;;14.23;5.40;;;;;;;;;;5024189;28;20036;-73
2022/05/14 12:27:46;;;;;;;16.38;5.90;;;;;;;;;;5019072;28;20044;-73
2022/05/14 12:33:11;;;;;;;15.95;6.38;;;;;;;;;;5021357;28;20037;-75
2022/05/14 12:33:11;;;;;;;15.00;5.63;;;;;;;;;;5026254;28;20046;-74
2022/05/14 12:35:37;;;;;;;19.80;5.68;;;;;;;;;;5024534;28;20379;-75
2022/05/14 12:38:03;;;;;;;17.60;5.60;;;;;;;;;;5027119;28;20669;-73
2022/05/14 12:40:33;;;;;;;12.70;6.32;;;;;;;;;;5024852;28;20030;-76
2022/05/14 12:42:59;;;;;;;13.05;6.70;;;;;;;;;;5019508;28;20546;-75
2022/05/14 12:45:38;;;;;;;15.30;6.88;;;;;;;;;;5024884;28;20033;-75
2022/05/14 12:48:03;;;;;;;12.50;6.00;;;;;;;;;;5022476;28;20030;-74
2022/05/14 12:50:33;;;;;;;15.35;5.93;;;;;;;;;;5021711;28;20030;-76
2022/05/14 12:53:09;;;;;;;16.70;6.90;;;;;;;;;;5024329;28;20619;-77
2022/05/14 12:55:36;;;;;;;17.75;6.57;;;;;;;;;;5016622;28;20025;-74
2022/05/14 12:58:02;;;;;;;14.45;6.13;;;;;;;;;;5021222;28;20025;-71
2022/05/14 13:00:28;;;;;;;16.75;6.22;;;;;;;;;;5027873;28;20430;-73
2022/05/14 13:02:55;;;;;;;15.00;6.15;;;;;;;;;;5022338;28;20060;-74
2022/05/14 13:05:23;;;;;;;13.82;5.80;;;;;;;;;;5022592;28;20796;-71
2022/05/14 13:07:50;;;;;;;25.33;6.28;;;;;;;;;;5023875;28;20240;-70
2022/05/14 13:10:21;;;;;;;16.05;5.60;;;;;;;;;;5022295;28;20044;-72
2022/05/14 13:12:49;;;;;;;27.52;6.13;;;;;;;;;;5020429;28;20080;-71
2022/05/14 13:15:14;;;;;;;19.02;5.30;;;;;;;;;;5022907;28;20121;-70
2022/05/14 13:17:39;;;;;;;19.30;6.67;;;;;;;;;;5020311;28;20371;-72
2022/05/14 13:20:07;;;;;;;26.63;6.13;;;;;;;;;;5019544;28;20053;-72
2022/05/14 13:22:37;;;;;;;14.38;5.40;;;;;;;;;;5025408;28;20036;-72
2022/05/14 13:25:19;;;;;;;16.98;6.15;;;;;;;;;;5024189;28;20344;-71
2022/05/14 13:27:44;;;;;;;16.63;6.07;;;;;;;;;;5021742;28;20029;-71
2022/05/14 13:30:11;;;;;;;18.43;6.30;;;;;;;;;;5018253;28;20029;-72
2022/05/14 13:32:37;;;;;;;23.60;6.15;;;;;;;;;;5021943;28;20401;-72
2022/05/14 13:37:50;;;;;;;19.33;6.00;;;;;;;;;;5023031;28;20324;-72
2022/05/14 13:40:21;;;;;;;12.70;6.30;;;;;;;;;;5021195;28;20029;-71
2022/05/14 13:42:50;;;;;;;15.85;6.68;;;;;;;;;;5028857;28;20486;-72
2022/05/14 13:45:15;;;;;;;19.55;6.32;;;;;;;;;;5020383;28;20438;-72
2022/05/14 13:47:41;;;;;;;12.13;5.68;;;;;;;;;;5021402;28;20701;-71
2022/05/14 13:50:07;;;;;;;12.90;5.28;;;;;;;;;;5025805;28;20463;-72
2022/05/14 13:52:33;;;;;;;21.77;6.07;;;;;;;;;;5026161;28;20048;-72
2022/05/14 13:55:00;;;;;;;15.32;6.32;;;;;;;;;;5024421;28;20020;-71
2022/05/14 13:57:25;;;;;;;17.85;5.90;;;;;;;;;;5017714;28;20029;-71
2022/05/14 14:00:00;;;;;;;17.00;6.10;;;;;;;;;;5021650;28;20049;-72
2022/05/14 14:02:27;;;;;;;21.10;6.22;;;;;;;;;;5024054;28;20029;-72
2022/05/14 14:04:55;;;;;;;14.80;5.75;;;;;;;;;;5020528;28;20076;-73
2022/05/14 14:07:20;;;;;;;10.32;4.88;;;;;;;;;;5020613;28;20612;-72
2022/05/14 14:09:45;;;;;;;13.70;4.90;;;;;;;;;;5021724;28;20041;-72
2022/05/14 14:12:11;;;;;;;16.43;5.73;;;;;;;;;;5025577;28;20029;-70
2022/05/14 14:14:36;;;;;;;21.58;6.25;;;;;;;;;;5026708;28;22179;-72
2022/05/14 14:17:01;;;;;;;17.92;5.82;;;;;;;;;;5024901;28;20352;-72
2022/05/14 14:19:27;;;;;;;20.23;7.35;;;;;;;;;;5010066;28;20128;-72
2022/05/14 14:21:53;;;;;;;15.23;6.40;;;;;;;;;;5024354;28;20405;-72
2022/05/14 14:24:20;;;;;;;12.77;5.75;;;;;;;;;;5022313;28;20040;-71
2022/05/14 14:26:46;;;;;;;15.10;6.80;;;;;;;;;;5019087;28;20024;-71
2022/05/14 14:29:12;;;;;;;16.17;6.20;;;;;;;;;;5018757;28;20026;-71
2022/05/14 14:31:37;;;;;;;14.88;6.15;;;;;;;;;;5022991;28;20028;-71
2022/05/14 14:34:03;;;;;;;12.27;5.53;;;;;;;;;;5022626;28;20098;-71
2022/05/14 14:36:28;;;;;;;20.50;5.57;;;;;;;;;;5019065;28;20305;-71
2022/05/14 14:38:53;;;;;;;12.90;5.68;;;;;;;;;;5022311;28;20151;-71
2022/05/14 14:41:18;;;;;;;11.97;6.03;;;;;;;;;;5020652;28;20037;-72
2022/05/14 14:43:44;;;;;;;16.33;5.05;;;;;;;;;;5024172;28;20040;-70
2022/05/14 14:46:10;;;;;;;13.85;5.38;;;;;;;;;;5023613;28;20036;-67
2022/05/14 14:48:38;;;;;;;11.65;5.35;;;;;;;;;;5022843;28;20116;-72